createdAt,value
2017-11-20T00:00:10.320Z,42.7
2017-11-20T00:01:11.661Z,42.7
2017-11-20T00:02:13.556Z,42.7
2017-11-20T00:03:15.452Z,42.9
2017-11-20T00:04:17.346Z,42.9
2017-11-20T00:05:18.944Z,42.2
2017-11-20T00:06:20.288Z,42.9
2017-11-20T00:07:21.903Z,42.7
2017-11-20T00:08:23.519Z,43
2017-11-20T00:09:25.136Z,42.7
2017-11-20T00:10:26.753Z,42.7
2017-11-20T00:11:28.094Z,42.7
2017-11-20T00:12:30.022Z,42.5
2017-11-20T00:13:31.907Z,42.8
2017-11-20T00:14:33.230Z,42.7
2017-11-20T00:15:34.549Z,42.8
2017-11-20T00:16:35.911Z,42.6
2017-11-20T00:17:37.809Z,42.7
2017-11-20T00:18:39.430Z,42.9
2017-11-20T00:19:40.758Z,42.8
2017-11-20T00:20:42.348Z,42.4
2017-11-20T00:21:43.946Z,42.2
2017-11-20T00:22:45.842Z,42.8
2017-11-20T00:23:47.737Z,42.8
2017-11-20T00:24:49.336Z,42.9
2017-11-20T00:25:51.232Z,42.8
2017-11-20T00:26:52.849Z,42.8
2017-11-20T00:27:54.745Z,42.8
2017-11-20T00:28:56.363Z,42.8
2017-11-20T00:29:58.259Z,42.8
2017-11-20T00:31:00.153Z,42.8
2017-11-20T00:32:02.047Z,42.9
2017-11-20T00:33:03.405Z,42.9
2017-11-20T00:34:04.725Z,42.9
2017-11-20T00:35:06.054Z,43
2017-11-20T00:36:07.948Z,42.7
2017-11-20T00:37:09.847Z,43
2017-11-20T00:38:10.889Z,42.6
2017-11-20T00:39:12.798Z,42.8
2017-11-20T00:40:14.692Z,42.9
2017-11-20T00:41:16.587Z,42.9
2017-11-20T00:42:17.629Z,42.7
2017-11-20T00:43:19.223Z,42.9
2017-11-20T00:44:20.846Z,42.8
2017-11-20T00:45:22.457Z,42.9
2017-11-20T00:46:23.498Z,42.9
2017-11-20T00:47:24.838Z,42.7
2017-11-20T00:48:26.732Z,42.9
2017-11-20T00:49:28.348Z,42.9
2017-11-20T00:50:29.968Z,42.8
2017-11-20T00:51:31.898Z,42.8
2017-11-20T00:52:33.219Z,42.8
2017-11-20T00:53:34.835Z,42.9
2017-11-20T00:54:36.454Z,42.8
2017-11-20T00:55:38.349Z,43
2017-11-20T00:56:39.671Z,42.6
2017-11-20T00:57:41.306Z,43
2017-11-20T00:58:42.642Z,43
2017-11-20T00:59:43.982Z,43
2017-11-20T01:00:45.607Z,42.6
2017-11-20T01:01:47.519Z,43
2017-11-20T01:02:49.148Z,42.9
2017-11-20T01:03:51.043Z,42.9
2017-11-20T01:04:52.640Z,42.7
2017-11-20T01:05:54.254Z,42.7
2017-11-20T01:06:55.860Z,42.6
2017-11-20T01:07:57.749Z,42.9
2017-11-20T01:08:58.815Z,42.7
2017-11-20T01:10:00.431Z,42.7
2017-11-20T01:11:02.329Z,42.8
2017-11-20T01:12:03.669Z,42.9
2017-11-20T01:13:05.268Z,42.8
2017-11-20T01:14:06.872Z,42.8
2017-11-20T01:15:08.461Z,42.8
2017-11-20T01:16:10.359Z,42.8
2017-11-20T01:17:11.724Z,42.8
2017-11-20T01:18:13.062Z,42.8
2017-11-20T01:19:14.661Z,42.4
2017-11-20T01:20:16.279Z,42.9
2017-11-20T01:21:18.175Z,43
2017-11-20T01:22:19.521Z,42.9
2017-11-20T01:23:20.858Z,42.4
2017-11-20T01:24:22.756Z,42.5
2017-11-20T01:25:24.663Z,42.7
2017-11-20T01:26:25.982Z,42.9
2017-11-20T01:27:27.879Z,43
2017-11-20T01:28:29.776Z,42.6
2017-11-20T01:29:30.870Z,42.9
2017-11-20T01:30:32.210Z,43
2017-11-20T01:31:33.829Z,42.6
2017-11-20T01:32:34.894Z,42.9
2017-11-20T01:33:35.939Z,42.6
2017-11-20T01:34:37.837Z,42.7
2017-11-20T01:35:39.439Z,42.6
2017-11-20T01:36:41.336Z,42.7
2017-11-20T01:37:42.955Z,42.8
2017-11-20T01:38:44.575Z,43
2017-11-20T01:39:46.483Z,43
2017-11-20T01:40:48.395Z,42.6
2017-11-20T01:41:50.006Z,42.7
2017-11-20T01:42:51.901Z,42.7
2017-11-20T01:43:53.801Z,42.8
2017-11-20T01:44:55.154Z,42.5
2017-11-20T01:45:56.778Z,42.6
2017-11-20T01:46:58.672Z,42.8
2017-11-20T01:48:00.569Z,42.9
2017-11-20T01:49:02.167Z,42.8
2017-11-20T01:50:03.572Z,42.9
2017-11-20T01:51:05.469Z,42.6
2017-11-20T01:52:07.362Z,42.9
2017-11-20T01:53:09.266Z,42.6
2017-11-20T01:54:10.880Z,42.7
2017-11-20T01:55:12.503Z,42.6
2017-11-20T01:56:14.102Z,42.7
2017-11-20T01:57:15.722Z,42.7
2017-11-20T01:58:17.620Z,42.7
2017-11-20T01:59:19.517Z,42.5
2017-11-20T02:00:21.413Z,42.9
2017-11-20T02:01:23.309Z,42.5
2017-11-20T02:02:25.226Z,42.7
2017-11-20T02:03:26.547Z,42.6
2017-11-20T02:04:28.155Z,42.6
2017-11-20T02:05:29.780Z,42.9
2017-11-20T02:06:31.396Z,42.6
2017-11-20T02:07:33.291Z,43
2017-11-20T02:08:34.339Z,42.8
2017-11-20T02:09:35.960Z,42.9
2017-11-20T02:10:37.855Z,42.7
2017-11-20T02:11:39.756Z,42.5
2017-11-20T02:12:41.654Z,42.9
2017-11-20T02:13:43.548Z,42.3
2017-11-20T02:14:45.178Z,43
2017-11-20T02:15:47.072Z,42.6
2017-11-20T02:16:48.394Z,42.8
2017-11-20T02:17:50.013Z,42.5
2017-11-20T02:18:51.610Z,42.6
2017-11-20T02:19:52.674Z,42.6
2017-11-20T02:20:54.572Z,42.6
2017-11-20T02:21:56.190Z,42.6
2017-11-20T02:22:57.808Z,42.7
2017-11-20T02:23:59.711Z,42.5
2017-11-20T02:25:01.331Z,43
2017-11-20T02:26:02.928Z,42.1
2017-11-20T02:27:04.825Z,42.7
2017-11-20T02:28:06.721Z,42.7
2017-11-20T02:29:08.341Z,42.6
2017-11-20T02:30:09.689Z,42.3
2017-11-20T02:31:11.308Z,42.6
2017-11-20T02:32:13.205Z,42.4
2017-11-20T02:33:15.102Z,43
2017-11-20T02:34:16.722Z,42.7
2017-11-20T02:35:18.325Z,43
2017-11-20T02:36:20.269Z,42.4
2017-11-20T02:37:22.169Z,42.9
2017-11-20T02:38:24.070Z,42.8
2017-11-20T02:39:25.406Z,42.7
2017-11-20T02:40:27.033Z,42.9
2017-11-20T02:41:28.648Z,42.9
2017-11-20T02:42:30.544Z,42.6
2017-11-20T02:43:32.440Z,42.6
2017-11-20T02:44:34.339Z,42.7
2017-11-20T02:45:36.231Z,42.8
2017-11-20T02:46:38.130Z,42.6
2017-11-20T02:47:40.024Z,42.5
2017-11-20T02:48:41.387Z,43
2017-11-20T02:49:42.701Z,42.7
2017-11-20T02:50:44.612Z,42.5
2017-11-20T02:51:46.507Z,42.6
2017-11-20T02:52:47.853Z,43
2017-11-20T02:53:49.748Z,43
2017-11-20T02:54:51.091Z,42.6
2017-11-20T02:55:52.697Z,42.9
2017-11-20T02:56:54.357Z,42.4
2017-11-20T02:57:55.962Z,42.9
2017-11-20T02:58:57.576Z,43
2017-11-20T02:59:58.927Z,42.5
2017-11-20T03:01:00.532Z,42.5
2017-11-20T03:02:02.423Z,42.6
2017-11-20T03:03:04.322Z,42.7
2017-11-20T03:04:05.370Z,42.7
2017-11-20T03:05:06.439Z,42.6
2017-11-20T03:06:08.333Z,43
2017-11-20T03:07:09.675Z,42.6
2017-11-20T03:08:11.275Z,42.7
2017-11-20T03:09:13.175Z,42.6
2017-11-20T03:10:14.772Z,42.6
2017-11-20T03:11:16.093Z,43
2017-11-20T03:12:17.990Z,42.5
2017-11-20T03:13:19.606Z,42.6
2017-11-20T03:14:21.226Z,42.6
2017-11-20T03:15:22.845Z,42.8
2017-11-20T03:16:24.465Z,42.7
2017-11-20T03:17:26.364Z,43
2017-11-20T03:18:27.985Z,42.7
2017-11-20T03:19:29.880Z,43.1
2017-11-20T03:20:31.202Z,42.9
2017-11-20T03:21:33.096Z,43
2017-11-20T03:22:34.993Z,42.7
2017-11-20T03:23:36.891Z,42.6
2017-11-20T03:24:38.541Z,42.8
2017-11-20T03:25:39.908Z,42.7
2017-11-20T03:26:41.532Z,42.8
2017-11-20T03:27:43.149Z,42.6
2017-11-20T03:28:44.493Z,42.6
2017-11-20T03:29:46.388Z,42.7
2017-11-20T03:30:48.320Z,42.7
2017-11-20T03:31:49.953Z,43
2017-11-20T03:32:51.752Z,42.7
2017-11-20T03:33:53.653Z,42.6
2017-11-20T03:34:55.273Z,43
2017-11-20T03:35:57.169Z,42.7
2017-11-20T03:36:58.767Z,42.7
2017-11-20T03:38:00.384Z,42.9
2017-11-20T03:39:02.007Z,42.7
2017-11-20T03:40:03.328Z,42.7
2017-11-20T03:41:04.672Z,42.7
2017-11-20T03:42:06.268Z,42.7
2017-11-20T03:43:07.597Z,42.2
2017-11-20T03:44:09.215Z,42.6
2017-11-20T03:45:10.832Z,42.6
2017-11-20T03:46:12.778Z,42.6
2017-11-20T03:47:14.407Z,43
2017-11-20T03:48:16.017Z,42.6
2017-11-20T03:49:17.361Z,42.6
2017-11-20T03:50:19.256Z,42.8
2017-11-20T03:51:21.148Z,42.6
2017-11-20T03:52:23.043Z,42.6
2017-11-20T03:53:24.943Z,42.7
2017-11-20T03:54:26.564Z,42.6
2017-11-20T03:55:27.902Z,42.5
2017-11-20T03:56:29.241Z,42.8
2017-11-20T03:57:30.863Z,42.6
2017-11-20T03:58:32.759Z,42.7
2017-11-20T03:59:34.377Z,42.6
2017-11-20T04:00:36.279Z,42.6
2017-11-20T04:01:38.172Z,42.7
2017-11-20T04:02:40.070Z,42.6
2017-11-20T04:03:41.968Z,42.8
2017-11-20T04:04:43.865Z,42.9
2017-11-20T04:05:45.484Z,42.6
2017-11-20T04:06:47.082Z,42.6
2017-11-20T04:07:48.980Z,42.7
2017-11-20T04:08:50.627Z,42.7
2017-11-20T04:09:52.528Z,42.8
2017-11-20T04:10:53.927Z,42.6
2017-11-20T04:11:55.519Z,42.6
2017-11-20T04:12:57.141Z,42.8
2017-11-20T04:13:58.741Z,42.6
2017-11-20T04:15:00.636Z,42.6
2017-11-20T04:16:02.532Z,42.5
2017-11-20T04:17:03.872Z,42.6
2017-11-20T04:18:05.846Z,42.8
2017-11-20T04:19:07.187Z,42.7
2017-11-20T04:20:08.817Z,42.5
2017-11-20T04:21:10.160Z,42.7
2017-11-20T04:22:12.060Z,42.6
2017-11-20T04:23:13.957Z,42.6
2017-11-20T04:24:15.577Z,42.6
2017-11-20T04:25:16.619Z,42.5
2017-11-20T04:26:17.662Z,42.6
2017-11-20T04:27:19.275Z,42.6
2017-11-20T04:28:20.328Z,42.6
2017-11-20T04:29:22.219Z,42.6
2017-11-20T04:30:23.837Z,42.2
2017-11-20T04:31:25.456Z,42.7
2017-11-20T04:32:27.102Z,42.7
2017-11-20T04:33:28.999Z,42.6
2017-11-20T04:34:30.627Z,42.7
2017-11-20T04:35:32.227Z,42.5
2017-11-20T04:36:33.846Z,42.6
2017-11-20T04:37:35.469Z,42.6
2017-11-20T04:38:37.365Z,42.6
2017-11-20T04:39:39.278Z,42.6
2017-11-20T04:40:40.896Z,42.6
2017-11-20T04:41:42.795Z,42.6
2017-11-20T04:42:44.690Z,42.7
2017-11-20T04:43:46.585Z,42.9
2017-11-20T04:44:47.931Z,42.9
2017-11-20T04:45:48.970Z,42.5
2017-11-20T04:46:50.290Z,42.5
2017-11-20T04:47:51.939Z,42.5
2017-11-20T04:48:53.571Z,42.5
2017-11-20T04:49:55.193Z,42.5
2017-11-20T04:50:57.105Z,42.6
2017-11-20T04:51:59.012Z,42.5
2017-11-20T04:53:00.908Z,42.7
2017-11-20T04:54:02.258Z,42.5
2017-11-20T04:55:03.283Z,42.7
2017-11-20T04:56:04.332Z,42.7
2017-11-20T04:57:05.927Z,42.7
2017-11-20T04:58:07.549Z,42.5
2017-11-20T04:59:09.449Z,42.7
2017-11-20T05:00:11.067Z,42.5
2017-11-20T05:01:12.967Z,42.4
2017-11-20T05:02:14.601Z,42.6
2017-11-20T05:03:16.196Z,42.4
2017-11-20T05:04:17.590Z,42.6
2017-11-20T05:05:19.197Z,42.5
2017-11-20T05:06:20.818Z,42.3
2017-11-20T05:07:22.713Z,42.2
2017-11-20T05:08:24.038Z,42.3
2017-11-20T05:09:25.656Z,42.5
2017-11-20T05:10:27.275Z,42.2
2017-11-20T05:11:28.909Z,42.2
2017-11-20T05:12:30.527Z,42.4
2017-11-20T05:13:31.863Z,42.2
2017-11-20T05:14:33.756Z,42.1
2017-11-20T05:15:35.099Z,42.3
2017-11-20T05:16:36.422Z,42.3
2017-11-20T05:17:38.056Z,42.3
2017-11-20T05:18:39.953Z,42.3
2017-11-20T05:19:41.274Z,42.4
2017-11-20T05:20:42.894Z,42.3
2017-11-20T05:21:44.789Z,42.4
2017-11-20T05:22:46.407Z,42.3
2017-11-20T05:23:48.302Z,42.4
2017-11-20T05:24:49.629Z,42.5
2017-11-20T05:25:50.667Z,42.2
2017-11-20T05:26:52.595Z,42.4
2017-11-20T05:27:53.975Z,42.1
2017-11-20T05:28:55.615Z,42.3
2017-11-20T05:29:57.236Z,42.5
2017-11-20T05:30:58.580Z,42.3
2017-11-20T05:31:59.649Z,42.1
2017-11-20T05:33:01.270Z,42.1
2017-11-20T05:34:02.893Z,42.1
2017-11-20T05:35:04.513Z,42.2
2017-11-20T05:36:06.417Z,42.3
2017-11-20T05:37:07.748Z,42.2
2017-11-20T05:38:09.639Z,42.2
2017-11-20T05:39:11.245Z,42.2
2017-11-20T05:40:12.874Z,42.1
2017-11-20T05:41:14.768Z,42.3
2017-11-20T05:42:16.366Z,42.4
2017-11-20T05:43:17.985Z,42.2
2017-11-20T05:44:19.582Z,42.3
2017-11-20T05:45:21.507Z,42.5
2017-11-20T05:46:22.851Z,42.4
2017-11-20T05:47:24.747Z,42.5
2017-11-20T05:48:26.647Z,42.4
2017-11-20T05:49:28.545Z,42.1
2017-11-20T05:50:29.866Z,42.4
2017-11-20T05:51:30.910Z,42.3
2017-11-20T05:52:32.583Z,42.4
2017-11-20T05:53:33.927Z,42.1
2017-11-20T05:54:35.577Z,42.3
2017-11-20T05:55:37.199Z,42.2
2017-11-20T05:56:38.818Z,42.5
2017-11-20T05:57:40.160Z,42.2
2017-11-20T05:58:42.054Z,42.3
2017-11-20T05:59:43.948Z,42.2
2017-11-20T06:00:45.547Z,42.3
2017-11-20T06:01:47.171Z,42.3
2017-11-20T06:02:48.785Z,42.1
2017-11-20T06:03:50.400Z,42.3
2017-11-20T06:04:52.019Z,42.2
2017-11-20T06:05:53.080Z,42
2017-11-20T06:06:54.679Z,42
2017-11-20T06:07:56.373Z,42.1
2017-11-20T06:08:58.278Z,42.1
2017-11-20T06:10:00.174Z,41.9
2017-11-20T06:11:02.075Z,42.2
2017-11-20T06:12:03.702Z,42.2
2017-11-20T06:13:05.598Z,42
2017-11-20T06:14:07.495Z,42.2
2017-11-20T06:15:09.390Z,42
2017-11-20T06:16:11.288Z,42
2017-11-20T06:17:12.914Z,42
2017-11-20T06:18:13.954Z,42
2017-11-20T06:19:15.850Z,42.2
2017-11-20T06:20:17.477Z,42.1
2017-11-20T06:21:19.384Z,41.8
2017-11-20T06:22:21.005Z,42.2
2017-11-20T06:23:22.902Z,41.9
2017-11-20T06:24:24.523Z,42.1
2017-11-20T06:25:26.416Z,41.9
2017-11-20T06:26:27.740Z,42.2
2017-11-20T06:27:29.363Z,42.1
2017-11-20T06:28:30.979Z,42.3
2017-11-20T06:29:32.326Z,42.1
2017-11-20T06:30:33.944Z,42
2017-11-20T06:31:35.564Z,42.2
2017-11-20T06:32:37.467Z,42.2
2017-11-20T06:33:38.814Z,42.2
2017-11-20T06:34:40.437Z,42.1
2017-11-20T06:35:42.337Z,42.1
2017-11-20T06:36:43.954Z,42.2
2017-11-20T06:37:45.571Z,42.2
2017-11-20T06:38:46.914Z,42.2
2017-11-20T06:39:48.537Z,42.2
2017-11-20T06:40:50.162Z,42.2
2017-11-20T06:41:51.780Z,42.4
2017-11-20T06:42:53.105Z,42.3
2017-11-20T06:43:54.507Z,42.3
2017-11-20T06:44:56.200Z,42.4
2017-11-20T06:45:57.246Z,42.5
2017-11-20T06:46:58.867Z,42.4
2017-11-20T06:48:00.489Z,42.5
2017-11-20T06:49:01.551Z,42.1
2017-11-20T06:50:03.174Z,42.3
2017-11-20T06:51:04.520Z,42.4
2017-11-20T06:52:06.422Z,42.3
2017-11-20T06:53:08.325Z,42.3
2017-11-20T06:54:10.234Z,42.4
2017-11-20T06:55:11.834Z,42.3
2017-11-20T06:56:13.453Z,42.5
2017-11-20T06:57:15.353Z,42.1
2017-11-20T06:58:16.972Z,42.3
2017-11-20T06:59:18.882Z,42.2
2017-11-20T07:00:20.229Z,42.1
2017-11-20T07:01:21.557Z,42.5
2017-11-20T07:02:23.186Z,42.3
2017-11-20T07:03:24.507Z,42.3
2017-11-20T07:04:26.415Z,42.3
2017-11-20T07:05:28.305Z,42.4
2017-11-20T07:06:30.224Z,42.3
2017-11-20T07:07:31.855Z,42.3
2017-11-20T07:08:33.469Z,42.2
2017-11-20T07:09:35.370Z,42.2
2017-11-20T07:10:36.693Z,42.2
2017-11-20T07:11:38.316Z,42.4
2017-11-20T07:12:39.922Z,42.3
2017-11-20T07:13:41.268Z,42.2
2017-11-20T07:14:43.167Z,42.6
2017-11-20T07:15:44.789Z,42.7
2017-11-20T07:16:46.410Z,42.7
2017-11-20T07:17:48.312Z,42.7
2017-11-20T07:18:50.209Z,42.5
2017-11-20T07:19:51.834Z,42.5
2017-11-20T07:20:53.175Z,42.7
2017-11-20T07:21:55.076Z,42.6
2017-11-20T07:22:56.678Z,42.5
2017-11-20T07:23:58.584Z,42.5
2017-11-20T07:25:00.481Z,42.6
2017-11-20T07:26:02.384Z,42.8
2017-11-20T07:27:04.013Z,42.5
2017-11-20T07:28:05.909Z,42.5
2017-11-20T07:29:07.819Z,42.6
2017-11-20T07:30:09.449Z,42.8
2017-11-20T07:31:11.066Z,42.9
2017-11-20T07:32:12.691Z,42.9
2017-11-20T07:33:14.324Z,42.6
2017-11-20T07:34:16.226Z,42.7
2017-11-20T07:35:17.830Z,42.7
2017-11-20T07:36:19.193Z,42.8
2017-11-20T07:37:20.807Z,42.6
2017-11-20T07:38:22.412Z,42.6
2017-11-20T07:39:24.038Z,42.6
2017-11-20T07:40:25.933Z,42.7
2017-11-20T07:41:26.982Z,42.6
2017-11-20T07:42:28.609Z,42.6
2017-11-20T07:43:30.242Z,42.6
2017-11-20T07:44:31.568Z,42.5
2017-11-20T07:45:32.892Z,42.6
2017-11-20T07:46:34.799Z,42.6
2017-11-20T07:47:36.398Z,42.5
2017-11-20T07:48:38.020Z,42.6
2017-11-20T07:49:39.666Z,42.9
2017-11-20T07:50:41.571Z,42.6
2017-11-20T07:51:42.900Z,42.7
2017-11-20T07:52:44.521Z,42.7
2017-11-20T07:53:46.150Z,42.6
2017-11-20T07:54:47.776Z,42.6
2017-11-20T07:55:49.416Z,42.6
2017-11-20T07:56:51.050Z,42.7
2017-11-20T07:57:52.674Z,42.7
2017-11-20T07:58:54.296Z,42.8
2017-11-20T07:59:55.919Z,42.6
2017-11-20T08:00:57.571Z,42.4
2017-11-20T08:01:59.471Z,42.9
2017-11-20T08:03:00.820Z,42.6
2017-11-20T08:04:01.874Z,43
2017-11-20T08:05:03.771Z,42.6
2017-11-20T08:06:05.115Z,42.7
2017-11-20T08:07:06.441Z,42.7
2017-11-20T08:08:08.339Z,42.7
2017-11-20T08:09:10.246Z,42.4
2017-11-20T08:10:11.567Z,42.5
2017-11-20T08:11:13.224Z,42.6
2017-11-20T08:12:14.850Z,42.6
2017-11-20T08:13:16.754Z,42.8
2017-11-20T08:14:18.657Z,42.7
2017-11-20T08:15:20.352Z,42.7
2017-11-20T08:16:21.674Z,42.6
2017-11-20T08:17:22.751Z,42.6
2017-11-20T08:18:24.649Z,42.7
2017-11-20T08:19:26.306Z,42.7
2017-11-20T08:20:28.224Z,42.7
2017-11-20T08:21:30.142Z,42.5
2017-11-20T08:22:31.486Z,42.7
2017-11-20T08:23:32.539Z,42.6
2017-11-20T08:24:34.437Z,42.6
2017-11-20T08:25:36.343Z,42.7
2017-11-20T08:26:37.688Z,42.6
2017-11-20T08:27:39.034Z,42.7
2017-11-20T08:28:40.665Z,42.8
2017-11-20T08:29:41.995Z,42.6
2017-11-20T08:30:43.341Z,43
2017-11-20T08:31:44.946Z,43
2017-11-20T08:32:46.571Z,42.8
2017-11-20T08:33:47.613Z,42.7
2017-11-20T08:34:49.213Z,42.7
2017-11-20T08:35:51.124Z,42.6
2017-11-20T08:36:53.023Z,42.6
2017-11-20T08:37:54.645Z,42.6
2017-11-20T08:38:56.273Z,42.6
2017-11-20T08:39:58.172Z,42.8
2017-11-20T08:40:59.520Z,42.7
2017-11-20T08:42:01.451Z,43
2017-11-20T08:43:03.350Z,42.6
2017-11-20T08:44:04.972Z,42.8
2017-11-20T08:45:06.573Z,42.5
2017-11-20T08:46:08.475Z,42.9
2017-11-20T08:47:09.867Z,42.7
2017-11-20T08:48:11.194Z,43.1
2017-11-20T08:49:13.098Z,43.1
2017-11-20T08:50:14.993Z,43.1
2017-11-20T08:51:16.900Z,42.9
2017-11-20T08:52:18.797Z,43.1
2017-11-20T08:53:20.399Z,42.9
2017-11-20T08:54:21.752Z,43
2017-11-20T08:55:23.653Z,43.1
2017-11-20T08:56:25.275Z,43.2
2017-11-20T08:57:27.179Z,42.8
2017-11-20T08:58:29.078Z,43.2
2017-11-20T08:59:30.453Z,43.2
2017-11-20T09:00:32.078Z,43.1
2017-11-20T09:01:33.703Z,43.2
2017-11-20T09:02:35.308Z,43.1
2017-11-20T09:03:37.213Z,43.3
2017-11-20T09:04:38.823Z,43.2
2017-11-20T09:05:40.729Z,43.2
2017-11-20T09:06:42.630Z,43.2
2017-11-20T09:07:43.963Z,43.3
2017-11-20T09:08:45.643Z,43.4
2017-11-20T09:09:47.411Z,43.1
2017-11-20T09:10:48.760Z,43.3
2017-11-20T09:11:49.833Z,43.1
2017-11-20T09:12:51.186Z,43.1
2017-11-20T09:13:52.229Z,43.2
2017-11-20T09:14:54.151Z,43.2
2017-11-20T09:15:55.586Z,43.1
2017-11-20T09:16:57.192Z,43.6
2017-11-20T09:17:58.231Z,43.1
2017-11-20T09:19:00.135Z,43.3
2017-11-20T09:20:01.759Z,43.7
2017-11-20T09:21:03.382Z,43.6
2017-11-20T09:22:04.994Z,43.6
2017-11-20T09:23:06.616Z,43.5
2017-11-20T09:24:08.518Z,43.3
2017-11-20T09:25:10.149Z,43.6
2017-11-20T09:26:11.477Z,43.2
2017-11-20T09:27:13.100Z,43.5
2017-11-20T09:28:14.425Z,43.6
2017-11-20T09:29:15.790Z,43.6
2017-11-20T09:30:17.404Z,43.4
2017-11-20T09:31:19.027Z,43.4
2017-11-20T09:32:20.353Z,43.4
2017-11-20T09:33:21.703Z,43.1
2017-11-20T09:34:23.603Z,43.4
2017-11-20T09:35:24.649Z,43.2
2017-11-20T09:36:26.648Z,43.2
2017-11-20T09:37:28.343Z,43.3
2017-11-20T09:38:29.967Z,43.8
2017-11-20T09:39:31.308Z,43.4
2017-11-20T09:40:32.934Z,43.6
2017-11-20T09:41:34.855Z,43.5
2017-11-20T09:42:36.863Z,43.5
2017-11-20T09:43:38.496Z,43.3
2017-11-20T09:44:40.439Z,43.3
2017-11-20T09:45:42.048Z,43.1
2017-11-20T09:46:43.644Z,43.3
2017-11-20T09:47:45.544Z,43.4
2017-11-20T09:48:47.444Z,43.6
2017-11-20T09:49:49.673Z,43.6
2017-11-20T09:50:51.013Z,43.6
2017-11-20T09:51:52.631Z,43.5
2017-11-20T09:52:54.332Z,43.6
2017-11-20T09:53:56.261Z,43.4
2017-11-20T09:54:57.897Z,43.4
2017-11-20T09:55:59.524Z,43.4
2017-11-20T09:57:01.429Z,43.3
2017-11-20T09:58:03.394Z,43.5
2017-11-20T09:59:04.485Z,43.4
2017-11-20T10:00:05.833Z,43.4
2017-11-20T10:01:07.187Z,43.4
2017-11-20T10:02:09.088Z,43.4
2017-11-20T10:03:10.435Z,43.4
2017-11-20T10:04:12.390Z,43.3
2017-11-20T10:05:14.357Z,43.3
2017-11-20T10:06:15.701Z,43.4
2017-11-20T10:07:17.027Z,43.4
2017-11-20T10:08:18.653Z,43.3
2017-11-20T10:09:20.551Z,43.4
2017-11-20T10:10:22.456Z,43.3
2017-11-20T10:11:24.079Z,43.4
2017-11-20T10:12:25.697Z,43.3
2017-11-20T10:13:27.027Z,43.4
2017-11-20T10:14:28.928Z,43.4
2017-11-20T10:15:30.535Z,43.4
2017-11-20T10:16:32.433Z,43.4
2017-11-20T10:17:34.370Z,43.4
2017-11-20T10:18:35.422Z,43.4
2017-11-20T10:19:37.049Z,43.4
2017-11-20T10:20:38.088Z,43.4
2017-11-20T10:21:39.989Z,43.4
2017-11-20T10:22:41.613Z,43.4
2017-11-20T10:23:43.217Z,43.5
2017-11-20T10:24:44.881Z,43.3
2017-11-20T10:25:46.230Z,43.3
2017-11-20T10:26:47.554Z,43.5
2017-11-20T10:27:49.460Z,43.3
2017-11-20T10:28:50.785Z,43.3
2017-11-20T10:29:52.395Z,43.2
2017-11-20T10:30:54.307Z,43.6
2017-11-20T10:31:55.655Z,43.2
2017-11-20T10:32:57.560Z,43.5
2017-11-20T10:33:58.899Z,43.3
2017-11-20T10:35:00.502Z,43.6
2017-11-20T10:36:02.402Z,43.2
2017-11-20T10:37:03.448Z,43.2
2017-11-20T10:38:05.070Z,43.4
2017-11-20T10:39:06.193Z,43.2
2017-11-20T10:40:08.093Z,43.2
2017-11-20T10:41:09.992Z,43.2
2017-11-20T10:42:11.322Z,43.2
2017-11-20T10:43:13.222Z,43.8
2017-11-20T10:44:14.569Z,43.6
2017-11-20T10:45:15.914Z,43.2
2017-11-20T10:46:17.243Z,43.7
2017-11-20T10:47:18.593Z,43.5
2017-11-20T10:48:20.515Z,43.6
2017-11-20T10:49:22.469Z,43.5
2017-11-20T10:50:24.071Z,44
2017-11-20T10:51:25.416Z,43.5
2017-11-20T10:52:26.765Z,43.7
2017-11-20T10:53:28.397Z,43.7
2017-11-20T10:54:30.295Z,43.6
2017-11-20T10:55:31.359Z,43.9
2017-11-20T10:56:32.682Z,43.5
2017-11-20T10:57:34.310Z,43.5
2017-11-20T10:58:36.208Z,43.6
2017-11-20T10:59:37.251Z,43.5
2017-11-20T11:00:38.879Z,43.4
2017-11-20T11:01:40.204Z,43.8
2017-11-20T11:02:41.550Z,43.5
2017-11-20T11:03:43.177Z,43.8
2017-11-20T11:04:45.079Z,43.7
2017-11-20T11:05:46.704Z,43.7
2017-11-20T11:06:48.048Z,43.9
2017-11-20T11:07:49.950Z,44
2017-11-20T11:08:51.856Z,43.7
2017-11-20T11:09:53.205Z,44
2017-11-20T11:10:54.822Z,43.7
2017-11-20T11:11:56.168Z,43.7
2017-11-20T11:12:57.494Z,43.8
2017-11-20T11:13:59.095Z,43.7
2017-11-20T11:15:00.718Z,43.9
2017-11-20T11:16:02.323Z,43.8
2017-11-20T11:17:04.232Z,43.8
2017-11-20T11:18:05.576Z,43.7
2017-11-20T11:19:07.196Z,44
2017-11-20T11:20:08.801Z,43.9
2017-11-20T11:21:09.840Z,43.6
2017-11-20T11:22:11.165Z,44
2017-11-20T11:23:13.067Z,43.7
2017-11-20T11:24:14.965Z,43.8
2017-11-20T11:25:16.864Z,43.7
2017-11-20T11:26:18.191Z,43.7
2017-11-20T11:27:22.668Z,43.6
2017-11-20T11:28:24.016Z,43.4
2017-11-20T11:29:25.643Z,43.7
2017-11-20T11:30:27.246Z,43.8
2017-11-20T11:31:29.151Z,43.4
2017-11-20T11:32:31.049Z,43.8
2017-11-20T11:33:32.689Z,43.3
2017-11-20T11:34:34.591Z,43.7
2017-11-20T11:35:35.944Z,43.7
2017-11-20T11:36:37.573Z,43.6
2017-11-20T11:37:39.475Z,43.8
2017-11-20T11:38:41.373Z,43.9
2017-11-20T11:39:42.701Z,43.9
2017-11-20T11:40:44.308Z,43.4
2017-11-20T11:41:45.657Z,43.7
2017-11-20T11:42:48.863Z,43.6
2017-11-20T11:43:50.469Z,43.7
2017-11-20T11:44:52.371Z,43.6
2017-11-20T11:45:54.000Z,43.7
2017-11-20T11:46:55.319Z,43.6
2017-11-20T11:47:56.647Z,43.7
2017-11-20T11:48:57.973Z,43.6
2017-11-20T11:49:59.595Z,44.1
2017-11-20T11:51:01.495Z,43.5
2017-11-20T11:52:03.099Z,43.6
2017-11-20T11:53:04.431Z,43.6
2017-11-20T11:54:06.335Z,43.9
2017-11-20T11:55:07.657Z,43.6
2017-11-20T11:56:09.282Z,43.6
2017-11-20T11:57:10.911Z,43.6
2017-11-20T11:58:12.813Z,43.8
2017-11-20T11:59:14.710Z,43.8
2017-11-20T12:00:16.057Z,43.8
2017-11-20T12:01:17.381Z,43.6
2017-11-20T12:02:19.002Z,43.4
2017-11-20T12:03:20.349Z,43.6
2017-11-20T12:04:21.968Z,43.7
2017-11-20T12:05:23.593Z,43.6
2017-11-20T12:06:25.215Z,44
2017-11-20T12:07:26.539Z,43.8
2017-11-20T12:08:28.442Z,44
2017-11-20T12:09:29.766Z,43.8
2017-11-20T12:10:31.669Z,43.7
2017-11-20T12:11:33.288Z,44.2
2017-11-20T12:12:35.187Z,43.8
2017-11-20T12:13:36.806Z,43.8
2017-11-20T12:14:38.409Z,44
2017-11-20T12:15:40.031Z,44
2017-11-20T12:16:41.666Z,43.8
2017-11-20T12:17:43.275Z,43.9
2017-11-20T12:18:45.172Z,43.9
2017-11-20T12:19:47.074Z,44.1
2017-11-20T12:20:47.839Z,44
2017-11-20T12:21:49.462Z,44.1
2017-11-20T12:22:51.363Z,43.9
2017-11-20T12:23:52.713Z,44.1
2017-11-20T12:24:54.607Z,44.1
2017-11-20T12:25:56.231Z,44.1
2017-11-20T12:26:57.846Z,44.2
2017-11-20T12:27:59.451Z,44.2
2017-11-20T12:29:01.073Z,44.2
2017-11-20T12:30:02.707Z,44.3
2017-11-20T12:31:04.388Z,44.3
2017-11-20T12:32:05.724Z,44.3
2017-11-20T12:33:07.042Z,44.1
2017-11-20T12:34:08.377Z,44.1
2017-11-20T12:35:09.718Z,44.2
2017-11-20T12:36:11.317Z,44.1
2017-11-20T12:37:12.663Z,44.5
2017-11-20T12:38:14.050Z,44.3
2017-11-20T12:39:15.645Z,44.4
2017-11-20T12:40:17.271Z,44.3
2017-11-20T12:41:19.172Z,44.4
2017-11-20T12:42:20.489Z,44.5
2017-11-20T12:43:22.086Z,44.4
2017-11-20T12:44:23.708Z,44.1
2017-11-20T12:45:25.328Z,44.4
2017-11-20T12:46:26.953Z,44.3
2017-11-20T12:47:28.298Z,44.4
2017-11-20T12:48:30.199Z,44.3
2017-11-20T12:49:31.521Z,44.4
2017-11-20T12:50:33.419Z,44.4
2017-11-20T12:51:35.314Z,44.4
2017-11-20T12:52:36.937Z,44.5
2017-11-20T12:53:38.559Z,44.4
2017-11-20T12:54:40.187Z,44.4
2017-11-20T12:55:41.808Z,44.4
2017-11-20T12:56:43.425Z,44.5
2017-11-20T12:57:44.751Z,44.4
2017-11-20T12:58:46.377Z,44.3
2017-11-20T12:59:47.726Z,44.7
2017-11-20T13:00:49.361Z,44.2
2017-11-20T13:01:51.267Z,44.2
2017-11-20T13:02:52.885Z,44.3
2017-11-20T13:03:54.505Z,44.3
2017-11-20T13:04:56.429Z,44.5
2017-11-20T13:05:58.328Z,44.1
2017-11-20T13:07:00.247Z,44.6
2017-11-20T13:08:02.145Z,44.3
2017-11-20T13:09:03.490Z,44.6
2017-11-20T13:10:05.416Z,44.7
2017-11-20T13:11:07.036Z,44.7
2017-11-20T13:12:08.939Z,44
2017-11-20T13:13:10.889Z,44.4
2017-11-20T13:14:12.553Z,44.7
2017-11-20T13:15:14.172Z,44.7
2017-11-20T13:16:15.834Z,44.7
2017-11-20T13:17:17.461Z,44.7
2017-11-20T13:18:19.408Z,44.6
2017-11-20T13:19:21.068Z,44.7
2017-11-20T13:20:22.402Z,44.6
2017-11-20T13:21:24.382Z,44.6
2017-11-20T13:22:26.277Z,44.6
2017-11-20T13:23:27.897Z,44.8
2017-11-20T13:24:29.241Z,44.6
2017-11-20T13:25:31.140Z,44.4
2017-11-20T13:26:33.096Z,44.8
2017-11-20T13:27:34.421Z,44.8
2017-11-20T13:28:35.742Z,44.8
2017-11-20T13:29:37.643Z,44.5
2017-11-20T13:30:39.548Z,44.7
2017-11-20T13:31:41.447Z,44
2017-11-20T13:32:43.065Z,44.6
2017-11-20T13:33:44.964Z,44.3
2017-11-20T13:34:46.591Z,44.2
2017-11-20T13:35:48.489Z,44.8
2017-11-20T13:36:49.832Z,44.8
2017-11-20T13:37:51.732Z,44.6
2017-11-20T13:38:53.625Z,44.4
2017-11-20T13:39:54.949Z,44.1
2017-11-20T13:40:56.547Z,44.2
2017-11-20T13:41:58.171Z,44.3
2017-11-20T13:42:59.513Z,44.5
2017-11-20T13:44:01.415Z,44.2